sensor_id;sensor_type;location;lat;lon;timestamp;P1;durP1;ratioP1;P2;durP2;ratioP2
37847;SDS011;23688;33.130;-117.188;2023-04-24T00:00:31;24.17;;;5.90;;
37847;SDS011;23688;33.130;-117.188;2023-04-24T00:02:57;18.30;;;6.78;;
37847;SDS011;23688;33.130;-117.188;2023-04-24T00:05:24;28.13;;;6.90;;
37847;SDS011;23688;33.130;-117.188;2023-04-24T00:07:50;29.35;;;7.00;;
37847;SDS011;23688;33.130;-117.188;2023-04-24T00:10:20;24.42;;;6.07;;
37847;SDS011;23688;33.130;-117.188;2023-04-24T00:12:46;21.75;;;5.70;;
37847;SDS011;23688;33.130;-117.188;2023-04-24T00:15:13;24.73;;;6.15;;
37847;SDS011;23688;33.130;-117.188;2023-04-24T00:17:40;21.50;;;5.93;;
37847;SDS011;23688;33.130;-117.188;2023-04-24T00:20:06;32.97;;;7.57;;
37847;SDS011;23688;33.130;-117.188;2023-04-24T00:22:35;29.48;;;6.30;;
37847;SDS011;23688;33.130;-117.188;2023-04-24T00:25:01;24.55;;;5.82;;
37847;SDS011;23688;33.130;-117.188;2023-04-24T00:27:28;27.27;;;6.63;;
37847;SDS011;23688;33.130;-117.188;2023-04-24T00:29:56;23.60;;;6.45;;
37847;SDS011;23688;33.130;-117.188;2023-04-24T00:32:23;22.67;;;6.72;;
37847;SDS011;23688;33.130;-117.188;2023-04-24T00:34:49;27.20;;;6.15;;
37847;SDS011;23688;33.130;-117.188;2023-04-24T00:37:15;30.23;;;7.53;;
37847;SDS011;23688;33.130;-117.188;2023-04-24T00:39:42;25.08;;;6.35;;
37847;SDS011;23688;33.130;-117.188;2023-04-24T00:42:08;30.65;;;6.68;;
37847;SDS011;23688;33.130;-117.188;2023-04-24T00:44:34;27.52;;;7.45;;
37847;SDS011;23688;33.130;-117.188;2023-04-24T00:47:01;25.23;;;6.72;;
37847;SDS011;23688;33.130;-117.188;2023-04-24T00:49:28;25.83;;;7.18;;
37847;SDS011;23688;33.130;-117.188;2023-04-24T00:51:54;26.35;;;7.50;;
37847;SDS011;23688;33.130;-117.188;2023-04-24T00:54:20;29.40;;;8.07;;
37847;SDS011;23688;33.130;-117.188;2023-04-24T00:56:46;38.40;;;7.85;;
37847;SDS011;23688;33.130;-117.188;2023-04-24T00:59:14;25.17;;;6.63;;
37847;SDS011;23688;33.130;-117.188;2023-04-24T01:01:43;28.88;;;7.82;;
37847;SDS011;23688;33.130;-117.188;2023-04-24T01:04:11;27.38;;;6.68;;
37847;SDS011;23688;33.130;-117.188;2023-04-24T01:06:40;25.33;;;7.20;;
37847;SDS011;23688;33.130;-117.188;2023-04-24T01:09:08;28.83;;;6.88;;
37847;SDS011;23688;33.130;-117.188;2023-04-24T01:11:36;25.93;;;6.93;;
37847;SDS011;23688;33.130;-117.188;2023-04-24T01:14:03;30.15;;;7.63;;
37847;SDS011;23688;33.130;-117.188;2023-04-24T01:16:30;31.92;;;7.28;;
37847;SDS011;23688;33.130;-117.188;2023-04-24T01:18:56;29.73;;;7.22;;
37847;SDS011;23688;33.130;-117.188;2023-04-24T01:21:22;34.13;;;7.68;;
37847;SDS011;23688;33.130;-117.188;2023-04-24T01:23:53;34.35;;;7.32;;
37847;SDS011;23688;33.130;-117.188;2023-04-24T01:26:21;34.00;;;8.40;;
37847;SDS011;23688;33.130;-117.188;2023-04-24T01:28:48;34.58;;;9.63;;
37847;SDS011;23688;33.130;-117.188;2023-04-24T01:31:15;27.17;;;7.80;;
37847;SDS011;23688;33.130;-117.188;2023-04-24T01:33:42;30.50;;;7.80;;
37847;SDS011;23688;33.130;-117.188;2023-04-24T01:36:09;29.80;;;7.60;;
37847;SDS011;23688;33.130;-117.188;2023-04-24T01:38:37;33.00;;;6.78;;
37847;SDS011;23688;33.130;-117.188;2023-04-24T01:41:06;29.73;;;8.13;;
37847;SDS011;23688;33.130;-117.188;2023-04-24T01:43:33;30.42;;;7.30;;
37847;SDS011;23688;33.130;-117.188;2023-04-24T01:46:02;40.33;;;8.48;;
37847;SDS011;23688;33.130;-117.188;2023-04-24T01:48:31;34.60;;;8.10;;
37847;SDS011;23688;33.130;-117.188;2023-04-24T01:50:59;30.10;;;8.13;;
37847;SDS011;23688;33.130;-117.188;2023-04-24T01:53:25;39.47;;;8.95;;
37847;SDS011;23688;33.130;-117.188;2023-04-24T01:55:52;35.60;;;8.70;;
37847;SDS011;23688;33.130;-117.188;2023-04-24T01:58:18;37.22;;;7.95;;
37847;SDS011;23688;33.130;-117.188;2023-04-24T02:00:44;39.15;;;8.70;;
37847;SDS011;23688;33.130;-117.188;2023-04-24T02:03:11;34.22;;;8.55;;
37847;SDS011;23688;33.130;-117.188;2023-04-24T02:05:43;32.50;;;8.43;;
37847;SDS011;23688;33.130;-117.188;2023-04-24T02:08:10;37.13;;;8.90;;
37847;SDS011;23688;33.130;-117.188;2023-04-24T02:10:36;40.10;;;9.02;;
37847;SDS011;23688;33.130;-117.188;2023-04-24T02:13:03;37.85;;;9.13;;
37847;SDS011;23688;33.130;-117.188;2023-04-24T02:15:30;39.05;;;10.60;;
37847;SDS011;23688;33.130;-117.188;2023-04-24T02:17:56;33.65;;;9.45;;
37847;SDS011;23688;33.130;-117.188;2023-04-24T02:20:22;35.88;;;9.88;;
37847;SDS011;23688;33.130;-117.188;2023-04-24T02:22:49;47.35;;;8.57;;
37847;SDS011;23688;33.130;-117.188;2023-04-24T02:25:16;33.50;;;8.80;;
37847;SDS011;23688;33.130;-117.188;2023-04-24T02:27:44;32.13;;;9.10;;
37847;SDS011;23688;33.130;-117.188;2023-04-24T02:30:10;37.67;;;9.38;;
37847;SDS011;23688;33.130;-117.188;2023-04-24T02:32:39;36.75;;;8.60;;
37847;SDS011;23688;33.130;-117.188;2023-04-24T02:35:05;41.33;;;8.95;;
37847;SDS011;23688;33.130;-117.188;2023-04-24T02:37:32;31.92;;;7.93;;
37847;SDS011;23688;33.130;-117.188;2023-04-24T02:40:01;42.15;;;9.65;;
37847;SDS011;23688;33.130;-117.188;2023-04-24T02:42:28;35.92;;;10.27;;
37847;SDS011;23688;33.130;-117.188;2023-04-24T02:44:54;29.70;;;8.00;;
37847;SDS011;23688;33.130;-117.188;2023-04-24T02:47:25;44.53;;;10.25;;
37847;SDS011;23688;33.130;-117.188;2023-04-24T02:49:54;33.15;;;9.15;;
37847;SDS011;23688;33.130;-117.188;2023-04-24T02:52:20;39.35;;;10.05;;
37847;SDS011;23688;33.130;-117.188;2023-04-24T02:54:47;39.08;;;9.10;;
37847;SDS011;23688;33.130;-117.188;2023-04-24T02:57:13;33.45;;;8.73;;
37847;SDS011;23688;33.130;-117.188;2023-04-24T02:59:41;44.80;;;9.88;;
37847;SDS011;23688;33.130;-117.188;2023-04-24T03:02:08;31.40;;;10.07;;
37847;SDS011;23688;33.130;-117.188;2023-04-24T03:04:34;42.67;;;9.05;;
37847;SDS011;23688;33.130;-117.188;2023-04-24T03:07:00;31.98;;;10.30;;
37847;SDS011;23688;33.130;-117.188;2023-04-24T03:09:27;30.55;;;7.82;;
37847;SDS011;23688;33.130;-117.188;2023-04-24T03:11:53;44.78;;;10.73;;
37847;SDS011;23688;33.130;-117.188;2023-04-24T03:14:22;40.17;;;8.65;;
37847;SDS011;23688;33.130;-117.188;2023-04-24T03:16:48;36.75;;;9.60;;
37847;SDS011;23688;33.130;-117.188;2023-04-24T03:19:15;38.05;;;11.60;;
37847;SDS011;23688;33.130;-117.188;2023-04-24T03:21:41;47.13;;;10.30;;
37847;SDS011;23688;33.130;-117.188;2023-04-24T03:24:08;31.15;;;8.73;;
37847;SDS011;23688;33.130;-117.188;2023-04-24T03:26:37;33.53;;;8.70;;
37847;SDS011;23688;33.130;-117.188;2023-04-24T03:29:03;42.75;;;9.80;;
37847;SDS011;23688;33.130;-117.188;2023-04-24T03:31:30;47.90;;;8.93;;
37847;SDS011;23688;33.130;-117.188;2023-04-24T03:34:00;30.88;;;8.80;;
37847;SDS011;23688;33.130;-117.188;2023-04-24T03:36:29;36.75;;;9.13;;
37847;SDS011;23688;33.130;-117.188;2023-04-24T03:38:57;42.92;;;10.52;;
37847;SDS011;23688;33.130;-117.188;2023-04-24T03:41:23;46.30;;;8.65;;
37847;SDS011;23688;33.130;-117.188;2023-04-24T03:43:50;35.15;;;8.20;;
37847;SDS011;23688;33.130;-117.188;2023-04-24T03:46:16;45.05;;;10.07;;
37847;SDS011;23688;33.130;-117.188;2023-04-24T03:48:42;40.97;;;8.77;;
37847;SDS011;23688;33.130;-117.188;2023-04-24T03:51:12;42.70;;;8.85;;
37847;SDS011;23688;33.130;-117.188;2023-04-24T03:53:38;41.25;;;9.90;;
37847;SDS011;23688;33.130;-117.188;2023-04-24T03:56:05;40.10;;;9.00;;
37847;SDS011;23688;33.130;-117.188;2023-04-24T03:58:31;34.47;;;9.75;;
37847;SDS011;23688;33.130;-117.188;2023-04-24T04:00:57;27.27;;;8.57;;
37847;SDS011;23688;33.130;-117.188;2023-04-24T04:03:25;31.52;;;8.90;;
37847;SDS011;23688;33.130;-117.188;2023-04-24T04:05:51;31.45;;;8.52;;
37847;SDS011;23688;33.130;-117.188;2023-04-24T04:08:18;30.25;;;8.73;;
37847;SDS011;23688;33.130;-117.188;2023-04-24T04:10:44;35.58;;;9.25;;
37847;SDS011;23688;33.130;-117.188;2023-04-24T04:13:11;39.38;;;9.35;;
37847;SDS011;23688;33.130;-117.188;2023-04-24T04:15:37;34.70;;;9.02;;
37847;SDS011;23688;33.130;-117.188;2023-04-24T04:18:03;35.45;;;8.60;;
37847;SDS011;23688;33.130;-117.188;2023-04-24T04:20:30;38.08;;;9.07;;
37847;SDS011;23688;33.130;-117.188;2023-04-24T04:22:57;38.85;;;9.27;;
37847;SDS011;23688;33.130;-117.188;2023-04-24T04:25:23;52.20;;;10.00;;
37847;SDS011;23688;33.130;-117.188;2023-04-24T04:27:49;44.50;;;10.00;;
37847;SDS011;23688;33.130;-117.188;2023-04-24T04:30:16;39.10;;;9.32;;
37847;SDS011;23688;33.130;-117.188;2023-04-24T04:32:46;46.30;;;9.68;;
37847;SDS011;23688;33.130;-117.188;2023-04-24T04:35:12;47.53;;;10.88;;
37847;SDS011;23688;33.130;-117.188;2023-04-24T04:37:38;46.50;;;10.20;;
37847;SDS011;23688;33.130;-117.188;2023-04-24T04:40:07;42.10;;;10.80;;
37847;SDS011;23688;33.130;-117.188;2023-04-24T04:42:37;44.80;;;9.93;;
37847;SDS011;23688;33.130;-117.188;2023-04-24T04:45:06;48.60;;;10.48;;
37847;SDS011;23688;33.130;-117.188;2023-04-24T04:47:37;51.83;;;11.38;;
37847;SDS011;23688;33.130;-117.188;2023-04-24T04:50:04;38.40;;;9.25;;
37847;SDS011;23688;33.130;-117.188;2023-04-24T04:52:31;36.08;;;9.68;;
37847;SDS011;23688;33.130;-117.188;2023-04-24T04:54:58;33.10;;;9.93;;
37847;SDS011;23688;33.130;-117.188;2023-04-24T04:57:25;40.28;;;10.18;;
37847;SDS011;23688;33.130;-117.188;2023-04-24T04:59:51;31.30;;;9.27;;
37847;SDS011;23688;33.130;-117.188;2023-04-24T05:02:18;40.47;;;9.23;;
37847;SDS011;23688;33.130;-117.188;2023-04-24T05:04:44;39.10;;;10.23;;
37847;SDS011;23688;33.130;-117.188;2023-04-24T05:07:10;47.20;;;10.30;;
37847;SDS011;23688;33.130;-117.188;2023-04-24T05:09:37;41.45;;;9.40;;
37847;SDS011;23688;33.130;-117.188;2023-04-24T05:12:03;36.70;;;8.98;;
37847;SDS011;23688;33.130;-117.188;2023-04-24T05:14:30;46.92;;;10.13;;
37847;SDS011;23688;33.130;-117.188;2023-04-24T05:16:56;30.27;;;8.55;;
37847;SDS011;23688;33.130;-117.188;2023-04-24T05:19:22;33.00;;;9.48;;
37847;SDS011;23688;33.130;-117.188;2023-04-24T05:21:48;46.00;;;10.43;;
37847;SDS011;23688;33.130;-117.188;2023-04-24T05:24:15;59.30;;;11.85;;
37847;SDS011;23688;33.130;-117.188;2023-04-24T05:26:41;45.15;;;10.20;;
37847;SDS011;23688;33.130;-117.188;2023-04-24T05:29:07;57.80;;;11.32;;
37847;SDS011;23688;33.130;-117.188;2023-04-24T05:31:34;53.33;;;12.05;;
37847;SDS011;23688;33.130;-117.188;2023-04-24T05:34:00;48.83;;;10.32;;
37847;SDS011;23688;33.130;-117.188;2023-04-24T05:36:26;46.03;;;11.65;;
37847;SDS011;23688;33.130;-117.188;2023-04-24T05:38:57;39.58;;;10.70;;
37847;SDS011;23688;33.130;-117.188;2023-04-24T05:41:24;49.85;;;10.50;;
37847;SDS011;23688;33.130;-117.188;2023-04-24T05:43:50;55.33;;;10.85;;
37847;SDS011;23688;33.130;-117.188;2023-04-24T05:46:16;47.20;;;10.55;;
37847;SDS011;23688;33.130;-117.188;2023-04-24T05:48:43;40.92;;;10.63;;
37847;SDS011;23688;33.130;-117.188;2023-04-24T05:51:09;45.55;;;11.10;;
37847;SDS011;23688;33.130;-117.188;2023-04-24T05:53:36;45.20;;;10.80;;
37847;SDS011;23688;33.130;-117.188;2023-04-24T05:56:02;42.60;;;10.30;;
37847;SDS011;23688;33.130;-117.188;2023-04-24T05:58:29;46.92;;;10.85;;
37847;SDS011;23688;33.130;-117.188;2023-04-24T06:00:55;38.92;;;10.73;;
37847;SDS011;23688;33.130;-117.188;2023-04-24T06:03:24;33.63;;;10.40;;
37847;SDS011;23688;33.130;-117.188;2023-04-24T06:05:50;44.03;;;10.23;;
37847;SDS011;23688;33.130;-117.188;2023-04-24T06:08:18;47.13;;;11.05;;
37847;SDS011;23688;33.130;-117.188;2023-04-24T06:10:45;45.72;;;10.95;;
37847;SDS011;23688;33.130;-117.188;2023-04-24T06:13:11;37.03;;;9.80;;
37847;SDS011;23688;33.130;-117.188;2023-04-24T06:15:37;36.03;;;9.82;;
37847;SDS011;23688;33.130;-117.188;2023-04-24T06:18:04;50.75;;;9.60;;
37847;SDS011;23688;33.130;-117.188;2023-04-24T06:20:30;31.77;;;9.80;;
37847;SDS011;23688;33.130;-117.188;2023-04-24T06:22:56;49.05;;;10.02;;
37847;SDS011;23688;33.130;-117.188;2023-04-24T06:25:24;31.92;;;9.75;;
37847;SDS011;23688;33.130;-117.188;2023-04-24T06:27:52;32.88;;;9.68;;
37847;SDS011;23688;33.130;-117.188;2023-04-24T06:30:18;35.00;;;10.15;;
37847;SDS011;23688;33.130;-117.188;2023-04-24T06:32:45;34.70;;;10.18;;
37847;SDS011;23688;33.130;-117.188;2023-04-24T06:35:11;29.33;;;8.85;;
37847;SDS011;23688;33.130;-117.188;2023-04-24T06:37:41;28.98;;;9.35;;
37847;SDS011;23688;33.130;-117.188;2023-04-24T06:40:08;27.42;;;9.05;;
37847;SDS011;23688;33.130;-117.188;2023-04-24T06:42:35;25.40;;;8.63;;
37847;SDS011;23688;33.130;-117.188;2023-04-24T06:45:02;42.35;;;9.73;;
37847;SDS011;23688;33.130;-117.188;2023-04-24T06:47:28;33.88;;;10.13;;
37847;SDS011;23688;33.130;-117.188;2023-04-24T06:49:57;41.55;;;10.10;;
37847;SDS011;23688;33.130;-117.188;2023-04-24T06:52:23;29.92;;;9.38;;
37847;SDS011;23688;33.130;-117.188;2023-04-24T06:54:50;33.53;;;9.82;;
37847;SDS011;23688;33.130;-117.188;2023-04-24T06:57:17;29.20;;;9.45;;
37847;SDS011;23688;33.130;-117.188;2023-04-24T06:59:43;35.28;;;9.52;;
37847;SDS011;23688;33.130;-117.188;2023-04-24T07:02:10;38.45;;;10.77;;
37847;SDS011;23688;33.130;-117.188;2023-04-24T07:04:36;35.00;;;9.68;;
37847;SDS011;23688;33.130;-117.188;2023-04-24T07:07:02;41.20;;;10.93;;
37847;SDS011;23688;33.130;-117.188;2023-04-24T07:09:30;36.70;;;11.65;;
37847;SDS011;23688;33.130;-117.188;2023-04-24T07:11:57;39.33;;;10.20;;
37847;SDS011;23688;33.130;-117.188;2023-04-24T07:14:23;28.08;;;9.60;;
37847;SDS011;23688;33.130;-117.188;2023-04-24T07:16:50;35.15;;;10.63;;
37847;SDS011;23688;33.130;-117.188;2023-04-24T07:19:16;30.95;;;10.18;;
37847;SDS011;23688;33.130;-117.188;2023-04-24T07:21:42;40.92;;;10.50;;
37847;SDS011;23688;33.130;-117.188;2023-04-24T07:24:09;36.33;;;10.45;;
37847;SDS011;23688;33.130;-117.188;2023-04-24T07:26:36;36.40;;;9.38;;
37847;SDS011;23688;33.130;-117.188;2023-04-24T07:29:04;41.40;;;10.43;;
37847;SDS011;23688;33.130;-117.188;2023-04-24T07:31:30;36.20;;;9.32;;
37847;SDS011;23688;33.130;-117.188;2023-04-24T07:33:57;38.50;;;11.07;;
37847;SDS011;23688;33.130;-117.188;2023-04-24T07:36:23;37.78;;;10.85;;
37847;SDS011;23688;33.130;-117.188;2023-04-24T07:38:51;40.45;;;11.25;;
37847;SDS011;23688;33.130;-117.188;2023-04-24T07:41:18;36.97;;;11.10;;
37847;SDS011;23688;33.130;-117.188;2023-04-24T07:43:44;38.97;;;10.85;;
37847;SDS011;23688;33.130;-117.188;2023-04-24T07:46:11;35.25;;;11.25;;
37847;SDS011;23688;33.130;-117.188;2023-04-24T07:48:37;32.97;;;9.73;;
37847;SDS011;23688;33.130;-117.188;2023-04-24T07:51:03;41.75;;;10.63;;
37847;SDS011;23688;33.130;-117.188;2023-04-24T07:53:30;44.42;;;11.93;;
37847;SDS011;23688;33.130;-117.188;2023-04-24T07:55:56;39.75;;;10.35;;
37847;SDS011;23688;33.130;-117.188;2023-04-24T07:58:23;39.05;;;10.45;;
37847;SDS011;23688;33.130;-117.188;2023-04-24T08:00:49;34.53;;;11.27;;
37847;SDS011;23688;33.130;-117.188;2023-04-24T08:03:15;33.97;;;9.80;;
37847;SDS011;23688;33.130;-117.188;2023-04-24T08:05:44;41.20;;;10.88;;
37847;SDS011;23688;33.130;-117.188;2023-04-24T08:08:13;53.28;;;12.10;;
37847;SDS011;23688;33.130;-117.188;2023-04-24T08:10:40;51.45;;;10.98;;
37847;SDS011;23688;33.130;-117.188;2023-04-24T08:13:06;37.47;;;11.48;;
37847;SDS011;23688;33.130;-117.188;2023-04-24T08:15:32;34.08;;;11.20;;
37847;SDS011;23688;33.130;-117.188;2023-04-24T08:17:59;45.50;;;12.55;;
37847;SDS011;23688;33.130;-117.188;2023-04-24T08:20:26;39.58;;;10.98;;
37847;SDS011;23688;33.130;-117.188;2023-04-24T08:22:52;41.83;;;11.02;;
37847;SDS011;23688;33.130;-117.188;2023-04-24T08:25:19;32.67;;;11.07;;
37847;SDS011;23688;33.130;-117.188;2023-04-24T08:27:48;42.95;;;11.05;;
37847;SDS011;23688;33.130;-117.188;2023-04-24T08:30:14;37.35;;;11.20;;
37847;SDS011;23688;33.130;-117.188;2023-04-24T08:32:40;43.40;;;11.90;;
37847;SDS011;23688;33.130;-117.188;2023-04-24T08:35:07;33.92;;;10.07;;
37847;SDS011;23688;33.130;-117.188;2023-04-24T08:37:34;39.58;;;11.88;;
37847;SDS011;23688;33.130;-117.188;2023-04-24T08:40:03;34.38;;;11.25;;
37847;SDS011;23688;33.130;-117.188;2023-04-24T08:42:36;39.72;;;10.45;;
37847;SDS011;23688;33.130;-117.188;2023-04-24T08:45:03;37.22;;;10.50;;
37847;SDS011;23688;33.130;-117.188;2023-04-24T08:47:30;35.08;;;11.00;;
37847;SDS011;23688;33.130;-117.188;2023-04-24T08:49:58;33.70;;;10.70;;
37847;SDS011;23688;33.130;-117.188;2023-04-24T08:52:28;28.95;;;10.38;;
37847;SDS011;23688;33.130;-117.188;2023-04-24T08:54:57;37.60;;;11.48;;
37847;SDS011;23688;33.130;-117.188;2023-04-24T08:57:26;31.13;;;11.48;;
37847;SDS011;23688;33.130;-117.188;2023-04-24T08:59:53;32.67;;;11.15;;
37847;SDS011;23688;33.130;-117.188;2023-04-24T09:02:20;31.48;;;11.07;;
37847;SDS011;23688;33.130;-117.188;2023-04-24T09:04:48;32.75;;;11.95;;
37847;SDS011;23688;33.130;-117.188;2023-04-24T09:07:15;47.07;;;11.87;;
37847;SDS011;23688;33.130;-117.188;2023-04-24T09:09:43;40.95;;;12.45;;
37847;SDS011;23688;33.130;-117.188;2023-04-24T09:12:11;41.20;;;11.52;;
37847;SDS011;23688;33.130;-117.188;2023-04-24T09:14:38;33.90;;;11.18;;
37847;SDS011;23688;33.130;-117.188;2023-04-24T09:17:07;44.33;;;12.70;;
37847;SDS011;23688;33.130;-117.188;2023-04-24T09:19:34;44.30;;;12.35;;
37847;SDS011;23688;33.130;-117.188;2023-04-24T09:22:04;39.45;;;13.55;;
37847;SDS011;23688;33.130;-117.188;2023-04-24T09:24:32;41.13;;;12.95;;
37847;SDS011;23688;33.130;-117.188;2023-04-24T09:27:01;35.28;;;12.43;;
37847;SDS011;23688;33.130;-117.188;2023-04-24T09:29:27;52.20;;;14.20;;
37847;SDS011;23688;33.130;-117.188;2023-04-24T09:31:54;50.72;;;15.13;;
37847;SDS011;23688;33.130;-117.188;2023-04-24T09:34:27;44.90;;;15.18;;
37847;SDS011;23688;33.130;-117.188;2023-04-24T09:36:54;36.88;;;14.10;;
37847;SDS011;23688;33.130;-117.188;2023-04-24T09:39:20;43.40;;;17.00;;
37847;SDS011;23688;33.130;-117.188;2023-04-24T09:41:56;45.05;;;15.00;;
37847;SDS011;23688;33.130;-117.188;2023-04-24T09:44:25;50.97;;;16.63;;
37847;SDS011;23688;33.130;-117.188;2023-04-24T09:46:56;43.22;;;16.08;;
37847;SDS011;23688;33.130;-117.188;2023-04-24T09:51:50;45.47;;;16.63;;
37847;SDS011;23688;33.130;-117.188;2023-04-24T09:54:18;53.60;;;18.00;;
37847;SDS011;23688;33.130;-117.188;2023-04-24T09:56:48;42.72;;;15.10;;
37847;SDS011;23688;33.130;-117.188;2023-04-24T09:59:18;36.53;;;14.05;;
37847;SDS011;23688;33.130;-117.188;2023-04-24T10:01:45;56.25;;;16.15;;
37847;SDS011;23688;33.130;-117.188;2023-04-24T10:04:17;43.85;;;15.30;;
37847;SDS011;23688;33.130;-117.188;2023-04-24T10:06:46;49.08;;;16.45;;
37847;SDS011;23688;33.130;-117.188;2023-04-24T10:09:14;48.08;;;15.77;;
37847;SDS011;23688;33.130;-117.188;2023-04-24T10:11:54;43.15;;;15.27;;
37847;SDS011;23688;33.130;-117.188;2023-04-24T10:14:25;40.63;;;16.35;;
37847;SDS011;23688;33.130;-117.188;2023-04-24T10:16:54;45.75;;;15.20;;
37847;SDS011;23688;33.130;-117.188;2023-04-24T10:19:25;42.65;;;16.60;;
37847;SDS011;23688;33.130;-117.188;2023-04-24T10:21:55;46.53;;;16.70;;
37847;SDS011;23688;33.130;-117.188;2023-04-24T10:24:23;50.00;;;15.27;;
37847;SDS011;23688;33.130;-117.188;2023-04-24T10:26:49;43.35;;;15.60;;
37847;SDS011;23688;33.130;-117.188;2023-04-24T10:29:35;49.67;;;15.88;;
37847;SDS011;23688;33.130;-117.188;2023-04-24T10:32:06;41.05;;;15.80;;
37847;SDS011;23688;33.130;-117.188;2023-04-24T10:34:34;34.67;;;13.93;;
37847;SDS011;23688;33.130;-117.188;2023-04-24T10:37:01;44.03;;;15.50;;
37847;SDS011;23688;33.130;-117.188;2023-04-24T10:39:29;45.58;;;16.42;;
37847;SDS011;23688;33.130;-117.188;2023-04-24T10:41:58;35.05;;;15.98;;
37847;SDS011;23688;33.130;-117.188;2023-04-24T10:44:24;46.10;;;16.65;;
37847;SDS011;23688;33.130;-117.188;2023-04-24T10:47:01;48.58;;;16.17;;
37847;SDS011;23688;33.130;-117.188;2023-04-24T10:49:28;48.15;;;17.42;;
37847;SDS011;23688;33.130;-117.188;2023-04-24T10:51:59;48.53;;;17.02;;
37847;SDS011;23688;33.130;-117.188;2023-04-24T10:54:41;46.60;;;18.27;;
37847;SDS011;23688;33.130;-117.188;2023-04-24T11:02:46;39.20;;;14.88;;
37847;SDS011;23688;33.130;-117.188;2023-04-24T11:05:16;40.85;;;16.60;;
37847;SDS011;23688;33.130;-117.188;2023-04-24T11:10:55;47.88;;;16.75;;
37847;SDS011;23688;33.130;-117.188;2023-04-24T11:13:24;39.58;;;16.13;;
37847;SDS011;23688;33.130;-117.188;2023-04-24T11:18:43;49.92;;;17.55;;
37847;SDS011;23688;33.130;-117.188;2023-04-24T11:21:18;39.60;;;16.05;;
37847;SDS011;23688;33.130;-117.188;2023-04-24T11:23:46;35.63;;;15.68;;
37847;SDS011;23688;33.130;-117.188;2023-04-24T11:26:13;41.63;;;14.73;;
37847;SDS011;23688;33.130;-117.188;2023-04-24T11:28:45;45.53;;;17.23;;
37847;SDS011;23688;33.130;-117.188;2023-04-24T11:31:37;41.10;;;15.55;;
37847;SDS011;23688;33.130;-117.188;2023-04-24T11:34:06;46.88;;;16.40;;
37847;SDS011;23688;33.130;-117.188;2023-04-24T11:36:37;42.10;;;16.23;;
37847;SDS011;23688;33.130;-117.188;2023-04-24T11:39:04;43.33;;;17.58;;
37847;SDS011;23688;33.130;-117.188;2023-04-24T11:41:31;38.88;;;17.50;;
37847;SDS011;23688;33.130;-117.188;2023-04-24T11:43:59;35.92;;;14.63;;
37847;SDS011;23688;33.130;-117.188;2023-04-24T11:46:27;44.90;;;16.60;;
37847;SDS011;23688;33.130;-117.188;2023-04-24T11:48:55;43.05;;;16.02;;
37847;SDS011;23688;33.130;-117.188;2023-04-24T11:51:22;48.00;;;15.73;;
37847;SDS011;23688;33.130;-117.188;2023-04-24T11:53:51;40.95;;;16.58;;
37847;SDS011;23688;33.130;-117.188;2023-04-24T11:56:23;40.42;;;16.73;;
37847;SDS011;23688;33.130;-117.188;2023-04-24T11:58:53;49.00;;;17.50;;
37847;SDS011;23688;33.130;-117.188;2023-04-24T12:01:20;46.10;;;17.17;;
37847;SDS011;23688;33.130;-117.188;2023-04-24T12:03:50;38.42;;;15.35;;
37847;SDS011;23688;33.130;-117.188;2023-04-24T12:06:20;43.35;;;16.08;;
37847;SDS011;23688;33.130;-117.188;2023-04-24T12:08:46;50.33;;;16.27;;
37847;SDS011;23688;33.130;-117.188;2023-04-24T12:11:14;34.65;;;14.93;;
37847;SDS011;23688;33.130;-117.188;2023-04-24T12:13:43;39.95;;;15.77;;
37847;SDS011;23688;33.130;-117.188;2023-04-24T12:16:10;45.17;;;16.67;;
37847;SDS011;23688;33.130;-117.188;2023-04-24T12:18:41;47.90;;;17.02;;
37847;SDS011;23688;33.130;-117.188;2023-04-24T12:21:19;42.60;;;16.13;;
37847;SDS011;23688;33.130;-117.188;2023-04-24T12:23:54;39.95;;;15.65;;
37847;SDS011;23688;33.130;-117.188;2023-04-24T12:26:21;39.70;;;15.82;;
37847;SDS011;23688;33.130;-117.188;2023-04-24T12:28:48;35.40;;;15.57;;
37847;SDS011;23688;33.130;-117.188;2023-04-24T12:31:16;43.13;;;15.55;;
37847;SDS011;23688;33.130;-117.188;2023-04-24T12:33:42;39.17;;;15.98;;
37847;SDS011;23688;33.130;-117.188;2023-04-24T12:36:10;32.67;;;15.48;;
37847;SDS011;23688;33.130;-117.188;2023-04-24T12:38:37;35.57;;;16.37;;
37847;SDS011;23688;33.130;-117.188;2023-04-24T12:41:09;38.55;;;14.23;;
37847;SDS011;23688;33.130;-117.188;2023-04-24T12:43:37;34.42;;;12.40;;
37847;SDS011;23688;33.130;-117.188;2023-04-24T12:46:04;40.08;;;14.10;;
37847;SDS011;23688;33.130;-117.188;2023-04-24T12:48:30;37.85;;;15.35;;
37847;SDS011;23688;33.130;-117.188;2023-04-24T12:50:58;37.70;;;14.95;;
37847;SDS011;23688;33.130;-117.188;2023-04-24T12:53:27;31.83;;;14.32;;
37847;SDS011;23688;33.130;-117.188;2023-04-24T12:55:55;40.50;;;14.73;;
37847;SDS011;23688;33.130;-117.188;2023-04-24T12:58:22;38.10;;;13.98;;
37847;SDS011;23688;33.130;-117.188;2023-04-24T13:00:48;34.20;;;13.85;;
37847;SDS011;23688;33.130;-117.188;2023-04-24T13:03:15;33.85;;;13.93;;
37847;SDS011;23688;33.130;-117.188;2023-04-24T13:05:41;33.22;;;14.55;;
37847;SDS011;23688;33.130;-117.188;2023-04-24T13:08:08;34.08;;;13.38;;
37847;SDS011;23688;33.130;-117.188;2023-04-24T13:10:35;29.27;;;14.50;;
37847;SDS011;23688;33.130;-117.188;2023-04-24T13:13:01;35.92;;;14.00;;
37847;SDS011;23688;33.130;-117.188;2023-04-24T13:15:28;41.50;;;15.80;;
37847;SDS011;23688;33.130;-117.188;2023-04-24T13:17:55;36.20;;;15.10;;
37847;SDS011;23688;33.130;-117.188;2023-04-24T13:20:21;43.30;;;15.13;;
37847;SDS011;23688;33.130;-117.188;2023-04-24T13:22:47;44.50;;;15.85;;
37847;SDS011;23688;33.130;-117.188;2023-04-24T13:25:14;35.67;;;15.68;;
37847;SDS011;23688;33.130;-117.188;2023-04-24T13:27:42;46.40;;;16.13;;
37847;SDS011;23688;33.130;-117.188;2023-04-24T13:30:08;35.60;;;14.45;;
37847;SDS011;23688;33.130;-117.188;2023-04-24T13:32:35;43.90;;;14.55;;
37847;SDS011;23688;33.130;-117.188;2023-04-24T13:35:02;45.78;;;14.73;;
37847;SDS011;23688;33.130;-117.188;2023-04-24T13:37:29;33.40;;;15.13;;
37847;SDS011;23688;33.130;-117.188;2023-04-24T13:39:55;35.30;;;14.27;;
37847;SDS011;23688;33.130;-117.188;2023-04-24T13:42:21;39.63;;;14.63;;
37847;SDS011;23688;33.130;-117.188;2023-04-24T13:44:48;39.83;;;13.63;;
37847;SDS011;23688;33.130;-117.188;2023-04-24T13:47:14;40.20;;;13.40;;
37847;SDS011;23688;33.130;-117.188;2023-04-24T13:49:41;42.00;;;15.00;;
37847;SDS011;23688;33.130;-117.188;2023-04-24T13:52:07;35.47;;;13.48;;
37847;SDS011;23688;33.130;-117.188;2023-04-24T13:54:35;34.67;;;15.55;;
37847;SDS011;23688;33.130;-117.188;2023-04-24T13:57:02;29.70;;;13.40;;
37847;SDS011;23688;33.130;-117.188;2023-04-24T13:59:29;38.42;;;14.85;;
37847;SDS011;23688;33.130;-117.188;2023-04-24T14:01:55;44.17;;;15.35;;
37847;SDS011;23688;33.130;-117.188;2023-04-24T14:04:22;41.08;;;14.38;;